createdAt,value
2018-08-05T00:00:15.507Z,14.17
2018-08-05T00:02:44.051Z,13.17
2018-08-05T00:05:13.308Z,12.70
2018-08-05T00:07:42.196Z,11.90
2018-08-05T00:10:12.736Z,13.47
2018-08-05T00:12:41.195Z,12.90
2018-08-05T00:15:11.089Z,12.67
2018-08-05T00:17:39.767Z,13.40
2018-08-05T00:20:10.531Z,13.67
2018-08-05T00:22:39.496Z,13.23
2018-08-05T00:25:08.037Z,13.30
2018-08-05T00:27:36.593Z,13.30
2018-08-05T00:30:06.537Z,12.83
2018-08-05T00:32:34.984Z,12.63
2018-08-05T00:35:03.470Z,13.27
2018-08-05T00:37:31.900Z,12.60
2018-08-05T00:40:00.371Z,13.63
2018-08-05T00:42:28.819Z,14.00
2018-08-05T00:44:57.342Z,14.10
2018-08-05T00:47:25.859Z,14.57
2018-08-05T00:49:54.355Z,13.67
2018-08-05T00:52:22.861Z,14.23
2018-08-05T00:54:51.391Z,15.30
2018-08-05T00:57:19.803Z,15.70
2018-08-05T00:59:48.382Z,14.90
2018-08-05T01:02:16.892Z,13.97
2018-08-05T01:04:45.393Z,13.97
2018-08-05T01:07:13.820Z,13.47
2018-08-05T01:09:42.302Z,14.30
2018-08-05T01:12:10.799Z,14.03
2018-08-05T01:14:39.335Z,14.83
2018-08-05T01:17:07.849Z,13.03
2018-08-05T01:19:36.275Z,13.77
2018-08-05T01:22:04.470Z,13.13
2018-08-05T01:24:32.904Z,13.20
2018-08-05T01:27:01.364Z,13.47
2018-08-05T01:29:29.800Z,13.37
2018-08-05T01:31:58.937Z,13.27
2018-08-05T01:34:27.364Z,13.67
2018-08-05T01:36:55.820Z,13.80
2018-08-05T01:39:24.307Z,13.43
2018-08-05T01:41:52.747Z,14.37
2018-08-05T01:44:21.272Z,13.27
2018-08-05T01:46:49.828Z,14.20
2018-08-05T01:49:18.355Z,15.30
2018-08-05T01:51:46.817Z,16.07
2018-08-05T01:54:15.276Z,15.27
2018-08-05T01:56:44.280Z,13.70
2018-08-05T01:59:12.775Z,14.67
2018-08-05T02:01:41.307Z,14.50
2018-08-05T02:04:09.777Z,14.73
2018-08-05T02:06:38.441Z,14.40
2018-08-05T02:09:08.526Z,15.00
2018-08-05T02:11:37.191Z,15.30
2018-08-05T02:14:05.678Z,14.67
2018-08-05T02:16:34.233Z,14.40
2018-08-05T02:19:02.791Z,14.73
2018-08-05T02:21:31.240Z,14.87
2018-08-05T02:23:59.731Z,14.37
2018-08-05T02:26:28.219Z,14.70
2018-08-05T02:28:56.659Z,14.50
2018-08-05T02:31:25.244Z,14.07
2018-08-05T02:33:53.763Z,13.67
2018-08-05T02:36:22.155Z,14.20
2018-08-05T02:38:50.847Z,15.53
2018-08-05T02:41:19.392Z,15.30
2018-08-05T02:43:48.036Z,14.37
2018-08-05T02:46:16.568Z,14.77
2018-08-05T02:48:45.058Z,14.60
2018-08-05T02:51:13.509Z,14.77
2018-08-05T02:53:42.093Z,13.97
2018-08-05T02:56:10.587Z,15.53
2018-08-05T02:58:38.736Z,14.00
2018-08-05T03:01:07.183Z,15.00
2018-08-05T03:03:35.646Z,16.40
2018-08-05T03:06:04.119Z,15.00
2018-08-05T03:08:32.608Z,16.47
2018-08-05T03:11:01.124Z,14.30
2018-08-05T03:13:29.526Z,14.67
2018-08-05T03:15:58.000Z,14.20
2018-08-05T03:18:26.399Z,13.93
2018-08-05T03:20:54.860Z,15.10
2018-08-05T03:23:23.352Z,14.83
2018-08-05T03:25:51.744Z,14.00
2018-08-05T03:28:20.229Z,14.53
2018-08-05T03:30:48.705Z,14.57
2018-08-05T03:33:17.527Z,13.87
2018-08-05T03:35:46.017Z,14.47
2018-08-05T03:38:14.478Z,14.73
2018-08-05T03:40:42.959Z,14.53
2018-08-05T03:43:11.387Z,16.37
2018-08-05T03:45:39.853Z,14.67
2018-08-05T03:48:08.295Z,13.77
2018-08-05T03:50:36.776Z,13.47
2018-08-05T03:53:05.361Z,14.90
2018-08-05T03:55:33.816Z,17.37
2018-08-05T03:58:02.411Z,16.40
2018-08-05T04:00:30.864Z,16.33
2018-08-05T04:02:59.875Z,15.30
2018-08-05T04:05:28.459Z,16.13
2018-08-05T04:07:56.928Z,15.67
2018-08-05T04:10:25.391Z,16.10
2018-08-05T04:12:54.114Z,15.30
2018-08-05T04:15:22.707Z,16.57
2018-08-05T04:17:51.221Z,16.90
2018-08-05T04:20:19.804Z,16.73
2018-08-05T04:22:48.356Z,14.93
2018-08-05T04:25:17.103Z,17.33
2018-08-05T04:27:45.897Z,15.20
2018-08-05T04:30:14.354Z,16.10
2018-08-05T04:32:43.396Z,15.73
2018-08-05T04:35:11.961Z,15.90
2018-08-05T04:37:40.443Z,17.17
2018-08-05T04:40:09.472Z,16.30
2018-08-05T04:42:38.734Z,15.50
2018-08-05T04:45:06.927Z,15.47
2018-08-05T04:47:35.764Z,15.00
2018-08-05T04:50:04.560Z,14.70
2018-08-05T04:52:33.128Z,16.33
2018-08-05T04:55:01.660Z,16.20
2018-08-05T04:57:30.270Z,15.37
2018-08-05T04:59:59.120Z,16.17
2018-08-05T05:02:28.028Z,16.50
2018-08-05T05:04:56.812Z,15.57
2018-08-05T05:07:25.384Z,14.47
2018-08-05T05:09:53.930Z,14.03
2018-08-05T05:12:22.828Z,15.70
2018-08-05T05:14:51.363Z,15.90
2018-08-05T05:17:19.887Z,15.23
2018-08-05T05:19:48.363Z,14.67
2018-08-05T05:22:16.612Z,14.90
2018-08-05T05:24:45.835Z,15.40
2018-08-05T05:27:14.361Z,14.17
2018-08-05T05:29:43.003Z,13.10
2018-08-05T05:32:11.706Z,13.60
2018-08-05T05:34:41.236Z,14.50
2018-08-05T05:37:09.760Z,13.03
2018-08-05T05:39:38.275Z,14.37
2018-08-05T05:42:07.144Z,15.00
2018-08-05T05:44:35.729Z,13.20
2018-08-05T05:47:04.260Z,15.40
2018-08-05T05:49:32.767Z,14.03
2018-08-05T05:52:01.266Z,15.30
2018-08-05T05:54:30.142Z,13.73
2018-08-05T05:56:58.618Z,13.50
2018-08-05T05:59:27.043Z,14.93
2018-08-05T06:01:55.590Z,16.23
2018-08-05T06:04:24.394Z,15.97
2018-08-05T06:06:53.012Z,17.13
2018-08-05T06:09:21.516Z,15.50
2018-08-05T06:11:49.956Z,16.13
2018-08-05T06:14:18.519Z,14.87
2018-08-05T06:16:47.017Z,16.17
2018-08-05T06:19:15.480Z,17.47
2018-08-05T06:21:44.285Z,16.23
2018-08-05T06:24:12.751Z,16.57
2018-08-05T06:26:42.034Z,16.20
2018-08-05T06:29:10.536Z,17.87
2018-08-05T06:31:39.043Z,17.27
2018-08-05T06:34:07.801Z,16.50
2018-08-05T06:36:36.241Z,16.00
2018-08-05T06:39:07.932Z,17.20
2018-08-05T06:41:36.902Z,15.77
2018-08-05T06:44:05.399Z,15.97
2018-08-05T06:46:34.816Z,15.10
2018-08-05T06:49:03.390Z,13.80
2018-08-05T06:51:32.435Z,14.33
2018-08-05T06:54:00.912Z,14.23
2018-08-05T06:56:29.430Z,14.53
2018-08-05T06:58:58.000Z,14.00
2018-08-05T07:01:26.576Z,13.50
2018-08-05T07:03:55.163Z,13.00
2018-08-05T07:06:23.644Z,11.93
2018-08-05T07:08:52.095Z,12.97
2018-08-05T07:11:20.552Z,13.07
2018-08-05T07:13:49.152Z,12.53
2018-08-05T07:16:18.296Z,11.00
2018-08-05T07:18:46.775Z,12.40
2018-08-05T07:21:15.289Z,11.00
2018-08-05T07:23:43.788Z,11.70
2018-08-05T07:26:12.290Z,11.83
2018-08-05T07:28:40.800Z,11.20
2018-08-05T07:31:09.265Z,12.17
2018-08-05T07:33:37.903Z,11.30
2018-08-05T07:36:06.409Z,11.43
2018-08-05T07:38:34.846Z,10.70
2018-08-05T07:41:03.734Z,9.70
2018-08-05T07:43:32.347Z,10.37
2018-08-05T07:46:00.807Z,10.00
2018-08-05T07:48:29.312Z,11.20
2018-08-05T07:50:57.839Z,9.07
2018-08-05T07:53:26.324Z,9.10
2018-08-05T07:55:54.761Z,9.53
2018-08-05T07:58:23.232Z,9.00
2018-08-05T08:00:51.745Z,9.60
2018-08-05T08:03:20.259Z,8.37
2018-08-05T08:05:48.771Z,9.10
2018-08-05T08:08:17.248Z,9.63
2018-08-05T08:10:45.711Z,9.03
2018-08-05T08:13:14.318Z,8.30
2018-08-05T08:15:42.737Z,8.60
2018-08-05T08:18:11.374Z,7.40
2018-08-05T08:20:39.958Z,8.13
2018-08-05T08:23:08.512Z,8.27
2018-08-05T08:25:37.036Z,8.47
2018-08-05T08:28:05.586Z,8.27
2018-08-05T08:30:34.411Z,7.27
2018-08-05T08:33:03.228Z,7.53
2018-08-05T08:35:31.726Z,7.77
2018-08-05T08:38:00.131Z,8.60
2018-08-05T08:40:28.647Z,8.07
2018-08-05T08:42:57.117Z,7.93
2018-08-05T08:45:25.624Z,7.40
2018-08-05T08:47:54.165Z,6.70
2018-08-05T08:50:22.708Z,6.53
2018-08-05T08:52:51.264Z,5.80
2018-08-05T08:55:20.027Z,6.20
2018-08-05T08:57:48.576Z,6.00
2018-08-05T09:00:17.011Z,5.63
2018-08-05T09:02:46.344Z,5.70
2018-08-05T09:05:15.207Z,5.47
2018-08-05T09:07:43.690Z,6.17
2018-08-05T09:10:12.219Z,6.10
2018-08-05T09:12:40.675Z,6.23
2018-08-05T09:15:10.788Z,5.70
2018-08-05T09:17:39.261Z,5.60
2018-08-05T09:20:07.813Z,5.97
2018-08-05T09:22:36.284Z,5.33
2018-08-05T09:25:04.972Z,5.30
2018-08-05T09:27:33.912Z,5.43
2018-08-05T09:30:02.460Z,5.00
2018-08-05T09:32:31.047Z,4.63
2018-08-05T09:34:59.524Z,5.00
2018-08-05T09:37:27.961Z,5.27
2018-08-05T09:39:56.421Z,4.90
2018-08-05T09:42:24.865Z,5.10
2018-08-05T09:44:54.253Z,5.63
2018-08-05T09:47:22.696Z,5.83
2018-08-05T09:49:51.127Z,5.30
2018-08-05T09:52:19.648Z,5.43
2018-08-05T09:54:48.191Z,5.20
2018-08-05T09:57:16.651Z,5.73
2018-08-05T09:59:45.204Z,5.10
2018-08-05T10:02:13.684Z,4.83
2018-08-05T10:04:43.045Z,5.33
2018-08-05T10:07:11.569Z,4.93
2018-08-05T10:09:40.083Z,5.40
2018-08-05T10:12:08.617Z,5.20
2018-08-05T10:14:37.136Z,5.20
2018-08-05T10:17:05.693Z,5.20
2018-08-05T10:19:34.234Z,5.20
2018-08-05T10:22:02.727Z,4.50
2018-08-05T10:24:30.861Z,5.00
2018-08-05T10:26:59.388Z,4.50
2018-08-05T10:29:27.921Z,4.60
2018-08-05T10:31:56.411Z,4.77
2018-08-05T10:34:24.952Z,4.60
2018-08-05T10:36:53.444Z,5.00
2018-08-05T10:39:21.892Z,4.67
2018-08-05T10:41:56.788Z,5.70
2018-08-05T10:44:25.229Z,5.13
2018-08-05T10:46:53.855Z,4.30
2018-08-05T10:49:22.249Z,4.30
2018-08-05T10:51:50.753Z,4.83
2018-08-05T10:54:19.296Z,4.57
2018-08-05T10:56:47.788Z,5.20
2018-08-05T10:59:16.300Z,3.90
2018-08-05T11:01:44.844Z,4.43
2018-08-05T11:04:13.353Z,4.70
2018-08-05T11:06:41.837Z,5.43
2018-08-05T11:09:10.307Z,4.70
2018-08-05T11:11:38.965Z,5.07
2018-08-05T11:14:07.440Z,4.37
2018-08-05T11:16:36.005Z,5.03
2018-08-05T11:19:04.432Z,4.40
2018-08-05T11:21:32.896Z,4.10
2018-08-05T11:24:01.374Z,4.17
2018-08-05T11:26:29.846Z,4.23
2018-08-05T11:28:58.289Z,3.67
2018-08-05T11:31:26.772Z,4.67
2018-08-05T11:33:55.273Z,3.87
2018-08-05T11:36:23.807Z,4.20
2018-08-05T11:38:52.383Z,4.10
2018-08-05T11:41:20.887Z,4.23
2018-08-05T11:43:49.396Z,3.83
2018-08-05T11:46:17.957Z,3.63
2018-08-05T11:48:46.489Z,3.67
2018-08-05T11:51:14.963Z,3.60
2018-08-05T11:53:43.459Z,3.77
2018-08-05T11:56:11.963Z,3.60
2018-08-05T11:58:40.629Z,3.20
2018-08-05T12:01:09.956Z,3.60
2018-08-05T12:03:38.364Z,3.40
2018-08-05T12:06:07.008Z,3.87
2018-08-05T12:08:35.519Z,4.03
2018-08-05T12:11:03.984Z,2.90
2018-08-05T12:13:32.132Z,3.60
2018-08-05T12:16:00.747Z,3.13
2018-08-05T12:18:29.188Z,3.40
2018-08-05T12:20:57.678Z,3.20
2018-08-05T12:23:26.212Z,3.40
2018-08-05T12:25:54.724Z,3.37
2018-08-05T12:28:26.125Z,3.70
2018-08-05T12:30:54.531Z,3.27
2018-08-05T12:33:23.012Z,2.87
2018-08-05T12:35:51.416Z,3.20
2018-08-05T12:38:19.982Z,2.93
2018-08-05T12:40:48.456Z,3.10
2018-08-05T12:43:16.986Z,2.93
2018-08-05T12:45:45.516Z,2.60
2018-08-05T12:48:13.969Z,2.70
2018-08-05T12:50:42.411Z,2.20
2018-08-05T12:53:10.550Z,2.40
2018-08-05T12:55:38.985Z,2.20
2018-08-05T12:58:07.460Z,2.60
2018-08-05T13:00:35.945Z,3.00
2018-08-05T13:03:04.162Z,2.20
2018-08-05T13:05:32.632Z,1.80
2018-08-05T13:08:01.088Z,2.23
2018-08-05T13:10:29.632Z,2.80
2018-08-05T13:12:58.109Z,3.10
2018-08-05T13:15:26.576Z,2.37
2018-08-05T13:17:55.067Z,2.60
2018-08-05T13:20:23.508Z,2.67
2018-08-05T13:22:51.984Z,3.17
2018-08-05T13:25:20.453Z,2.70
2018-08-05T13:27:49.036Z,2.50
2018-08-05T13:30:17.588Z,2.60
2018-08-05T13:32:46.104Z,3.07
2018-08-05T13:35:15.132Z,2.77
2018-08-05T13:37:43.647Z,2.50
2018-08-05T13:40:12.143Z,2.63
2018-08-05T13:42:40.644Z,3.00
2018-08-05T13:45:09.105Z,2.47
2018-08-05T13:47:37.701Z,2.93
2018-08-05T13:50:06.868Z,2.73
2018-08-05T13:52:35.368Z,3.20
2018-08-05T13:55:03.839Z,2.93
2018-08-05T13:57:32.453Z,2.97
2018-08-05T14:00:00.930Z,2.90
2018-08-05T14:02:29.362Z,3.20
2018-08-05T14:04:57.772Z,2.90
2018-08-05T14:07:26.227Z,3.10
2018-08-05T14:09:54.664Z,2.50
2018-08-05T14:12:23.209Z,3.30
2018-08-05T14:14:51.773Z,3.00
2018-08-05T14:17:20.303Z,2.80
2018-08-05T14:19:48.743Z,2.43
2018-08-05T14:22:17.230Z,2.40
2018-08-05T14:24:45.690Z,2.37
2018-08-05T14:27:14.167Z,2.80
2018-08-05T14:29:42.704Z,2.77
2018-08-05T14:32:11.229Z,2.50
2018-08-05T14:34:39.857Z,2.80
2018-08-05T14:37:09.217Z,2.20
2018-08-05T14:39:37.684Z,2.57
2018-08-05T14:42:06.484Z,2.47
2018-08-05T14:44:34.949Z,2.13
2018-08-05T14:47:03.380Z,2.67
2018-08-05T14:49:31.527Z,2.60
2018-08-05T14:51:59.940Z,2.20
2018-08-05T14:54:28.433Z,2.20
2018-08-05T14:56:56.891Z,2.03
2018-08-05T14:59:25.429Z,2.77
2018-08-05T15:01:53.830Z,2.00
2018-08-05T15:04:22.436Z,2.30
2018-08-05T15:06:50.857Z,2.47
2018-08-05T15:09:19.303Z,2.23
2018-08-05T15:11:47.744Z,2.57
2018-08-05T15:14:16.260Z,1.97
2018-08-05T15:16:44.824Z,2.77
2018-08-05T15:19:13.359Z,2.63
2018-08-05T15:21:41.837Z,2.40
2018-08-05T15:24:11.008Z,2.13
2018-08-05T15:26:39.621Z,2.40
2018-08-05T15:29:08.148Z,2.47
2018-08-05T15:31:36.555Z,2.43
2018-08-05T15:34:05.078Z,2.40
2018-08-05T15:36:33.535Z,2.47
2018-08-05T15:39:01.967Z,2.10
2018-08-05T15:41:30.393Z,1.90
2018-08-05T15:43:58.879Z,2.50
2018-08-05T15:46:27.384Z,2.77
2018-08-05T15:48:55.855Z,2.30
2018-08-05T15:51:24.901Z,3.00
2018-08-05T15:53:53.341Z,2.43
2018-08-05T15:56:21.889Z,3.57
2018-08-05T15:58:50.287Z,1.70
2018-08-05T16:01:18.784Z,2.10
2018-08-05T16:03:47.308Z,2.20
2018-08-05T16:06:15.750Z,2.00
2018-08-05T16:08:44.313Z,1.93
2018-08-05T16:11:12.791Z,1.93
2018-08-05T16:13:41.276Z,1.90
2018-08-05T16:16:09.769Z,2.10
2018-08-05T16:18:38.195Z,1.67
2018-08-05T16:21:07.124Z,1.97
2018-08-05T16:23:35.589Z,2.03
2018-08-05T16:26:04.084Z,1.63
2018-08-05T16:28:32.479Z,2.33
2018-08-05T16:31:01.011Z,2.00
2018-08-05T16:33:29.460Z,2.33
2018-08-05T16:35:57.960Z,2.30
2018-08-05T16:38:26.423Z,1.70
2018-08-05T16:40:54.895Z,1.90
2018-08-05T16:43:23.345Z,2.10
2018-08-05T16:45:51.795Z,2.10
2018-08-05T16:48:20.288Z,1.80
2018-08-05T16:50:48.847Z,2.07
2018-08-05T16:53:17.327Z,1.80
2018-08-05T16:55:45.863Z,2.10
2018-08-05T16:58:14.368Z,2.27
2018-08-05T17:00:42.840Z,2.47
2018-08-05T17:03:11.396Z,2.00
2018-08-05T17:05:39.968Z,2.17
2018-08-05T17:08:08.411Z,2.30
2018-08-05T17:10:36.859Z,1.80
2018-08-05T17:13:05.331Z,1.93
2018-08-05T17:15:33.812Z,1.60
2018-08-05T17:18:02.337Z,2.17
2018-08-05T17:20:30.740Z,1.80
2018-08-05T17:22:59.283Z,2.27
2018-08-05T17:25:27.697Z,1.90
2018-08-05T17:27:56.145Z,1.87
2018-08-05T17:30:24.650Z,1.83
2018-08-05T17:32:53.142Z,1.80
2018-08-05T17:35:21.576Z,2.00
2018-08-05T17:37:49.971Z,1.70
2018-08-05T17:40:18.486Z,2.07
2018-08-05T17:42:46.924Z,2.30
2018-08-05T17:45:15.465Z,2.03
2018-08-05T17:47:43.896Z,2.07
2018-08-05T17:50:12.394Z,1.90
2018-08-05T17:52:40.891Z,2.10
2018-08-05T17:55:09.304Z,2.37
2018-08-05T17:57:37.789Z,2.37
2018-08-05T18:00:07.739Z,2.20
2018-08-05T18:02:36.227Z,1.90
2018-08-05T18:05:05.090Z,1.93
2018-08-05T18:07:33.540Z,2.33
2018-08-05T18:10:01.944Z,2.73
2018-08-05T18:12:30.476Z,2.17
2018-08-05T18:14:58.905Z,2.60
2018-08-05T18:17:27.742Z,2.20
2018-08-05T18:19:56.196Z,2.10
2018-08-05T18:22:24.719Z,2.17
2018-08-05T18:24:53.198Z,2.30
2018-08-05T18:27:21.631Z,2.40
2018-08-05T18:29:50.087Z,2.20
2018-08-05T18:32:18.557Z,2.20
2018-08-05T18:34:46.975Z,2.10
2018-08-05T18:37:15.441Z,2.40
2018-08-05T18:39:43.879Z,2.60
2018-08-05T18:42:12.004Z,2.20
2018-08-05T18:44:40.559Z,1.80
2018-08-05T18:47:09.044Z,2.20
2018-08-05T18:49:37.487Z,2.30
2018-08-05T18:52:05.979Z,2.27
2018-08-05T18:54:34.660Z,2.33
2018-08-05T18:57:03.157Z,2.30
2018-08-05T18:59:31.644Z,2.07
2018-08-05T19:02:00.111Z,2.40
2018-08-05T19:04:28.614Z,2.43
2018-08-05T19:06:57.194Z,3.33
2018-08-05T19:09:25.665Z,5.00
2018-08-05T19:11:54.155Z,3.47
2018-08-05T19:14:22.642Z,4.33
2018-08-05T19:16:51.406Z,3.60
2018-08-05T19:19:19.991Z,3.67
2018-08-05T19:21:48.668Z,2.63
2018-08-05T19:24:17.188Z,3.90
2018-08-05T19:26:45.689Z,7.53
2018-08-05T19:29:14.232Z,2.93
2018-08-05T19:31:42.728Z,2.23
2018-08-05T19:34:11.236Z,2.30
2018-08-05T19:36:39.688Z,3.67
2018-08-05T19:39:10.139Z,3.00
2018-08-05T19:41:38.548Z,2.10
2018-08-05T19:44:07.095Z,3.00
2018-08-05T19:46:35.783Z,2.00
2018-08-05T19:49:04.341Z,2.87
2018-08-05T19:51:32.955Z,2.33
2018-08-05T19:54:01.493Z,2.10
2018-08-05T19:56:30.195Z,1.77
2018-08-05T19:58:58.692Z,2.57
2018-08-05T20:01:27.164Z,2.80
2018-08-05T20:03:55.917Z,2.60
2018-08-05T20:06:24.396Z,2.77
2018-08-05T20:08:52.899Z,2.73
2018-08-05T20:11:21.371Z,2.53
2018-08-05T20:13:50.167Z,2.60
2018-08-05T20:16:18.712Z,3.63
2018-08-05T20:18:47.292Z,2.60
2018-08-05T20:21:15.828Z,3.23
2018-08-05T20:23:44.392Z,2.60
2018-08-05T20:26:12.980Z,2.40
2018-08-05T20:28:41.519Z,2.13
2018-08-05T20:31:10.131Z,2.27
2018-08-05T20:33:38.703Z,2.53
2018-08-05T20:36:07.252Z,2.50
2018-08-05T20:38:35.790Z,2.63
2018-08-05T20:41:04.327Z,2.40
2018-08-05T20:43:32.857Z,2.40
2018-08-05T20:46:01.380Z,2.70
2018-08-05T20:48:29.995Z,3.10
2018-08-05T20:51:01.307Z,2.80
2018-08-05T20:53:29.835Z,2.60
2018-08-05T20:55:58.400Z,3.07
2018-08-05T20:58:26.856Z,2.67
2018-08-05T21:00:55.418Z,2.60
2018-08-05T21:03:23.591Z,2.13
2018-08-05T21:05:52.077Z,1.83
2018-08-05T21:08:20.529Z,2.30
2018-08-05T21:10:49.016Z,2.23
2018-08-05T21:13:17.502Z,2.40
2018-08-05T21:15:46.045Z,2.60
2018-08-05T21:18:14.649Z,2.60
2018-08-05T21:20:43.144Z,2.40
2018-08-05T21:23:11.647Z,2.50
2018-08-05T21:25:40.122Z,3.00
2018-08-05T21:28:08.924Z,2.80
2018-08-05T21:30:37.349Z,3.10
2018-08-05T21:33:05.964Z,2.53
2018-08-05T21:35:34.452Z,2.23
2018-08-05T21:38:03.016Z,2.17
2018-08-05T21:40:31.488Z,2.50
2018-08-05T21:42:59.981Z,2.13
2018-08-05T21:45:28.476Z,1.87
2018-08-05T21:47:56.960Z,2.13
2018-08-05T21:50:25.136Z,2.20
2018-08-05T21:52:53.631Z,2.00
2018-08-05T21:55:22.098Z,2.10
2018-08-05T21:57:50.600Z,2.20
2018-08-05T22:00:20.290Z,1.93
2018-08-05T22:02:48.829Z,1.87
2018-08-05T22:05:17.613Z,1.90
2018-08-05T22:07:46.431Z,2.40
2018-08-05T22:10:14.913Z,2.17
2018-08-05T22:12:43.381Z,2.03
2018-08-05T22:15:12.415Z,2.50
2018-08-05T22:17:41.580Z,2.07
2018-08-05T22:20:12.387Z,2.00
2018-08-05T22:22:40.909Z,1.70
2018-08-05T22:25:09.932Z,2.30
2018-08-05T22:27:38.419Z,2.20
2018-08-05T22:30:10.424Z,2.47
2018-08-05T22:32:38.928Z,2.00
2018-08-05T22:35:07.759Z,2.17
2018-08-05T22:37:36.255Z,1.90
2018-08-05T22:40:05.452Z,2.63
2018-08-05T22:42:33.891Z,2.27
2018-08-05T22:45:02.363Z,2.37
2018-08-05T22:47:30.491Z,2.60
2018-08-05T22:49:58.955Z,2.47
2018-08-05T22:52:27.424Z,2.30
2018-08-05T22:54:55.833Z,2.40
2018-08-05T22:57:24.238Z,1.90
2018-08-05T22:59:52.717Z,2.50
2018-08-05T23:02:21.219Z,2.43
2018-08-05T23:04:49.635Z,2.40
2018-08-05T23:07:17.770Z,2.00
2018-08-05T23:10:10.146Z,2.60
2018-08-05T23:12:38.693Z,2.00
2018-08-05T23:15:26.357Z,2.50
2018-08-05T23:17:55.464Z,2.10
2018-08-05T23:20:23.963Z,2.40
2018-08-05T23:22:55.119Z,2.67
2018-08-05T23:25:24.415Z,2.80
2018-08-05T23:27:54.084Z,2.20
2018-08-05T23:30:23.787Z,2.20
2018-08-05T23:32:52.347Z,2.07
2018-08-05T23:35:20.911Z,2.13
2018-08-05T23:37:49.401Z,2.30
2018-08-05T23:40:25.484Z,1.90
2018-08-05T23:42:53.999Z,2.27
2018-08-05T23:45:23.243Z,2.33
2018-08-05T23:47:51.711Z,2.40
2018-08-05T23:50:23.383Z,2.60
2018-08-05T23:52:52.600Z,2.40
2018-08-05T23:55:21.219Z,2.70
2018-08-05T23:57:50.636Z,2.30
